createdAt,value
2023-03-20T00:00:16.533Z,101200.84
2023-03-20T00:02:43.762Z,101186.72
2023-03-20T00:05:21.928Z,101193.13
2023-03-20T00:07:53.221Z,101191.44
2023-03-20T00:10:21.339Z,101197.19
2023-03-20T00:12:52.903Z,101183.88
2023-03-20T00:15:25.353Z,101190.97
2023-03-20T00:17:55.764Z,101185.09
2023-03-20T00:20:23.131Z,101186.56
2023-03-20T00:22:56.030Z,101189.41
2023-03-20T00:25:27.170Z,101191.44
2023-03-20T00:27:56.933Z,101194.75
2023-03-20T00:30:29.195Z,101189.91
2023-03-20T00:32:58.796Z,101187.59
2023-03-20T00:35:27.950Z,101189.91
2023-03-20T00:37:58.763Z,101187.59
2023-03-20T00:40:36.828Z,101187.22
2023-03-20T00:43:10.501Z,101187.66
2023-03-20T00:45:42.922Z,101184.34
2023-03-20T00:48:15.887Z,101187.16
2023-03-20T00:50:47.625Z,101183.56
2023-03-20T00:53:14.884Z,101179.53
2023-03-20T00:55:42.204Z,101181.75
2023-03-20T00:58:10.570Z,101182.34
2023-03-20T01:00:46.827Z,101183.88
2023-03-20T01:03:20.657Z,101185.06
2023-03-20T01:05:50.101Z,101189.25
2023-03-20T01:08:24.245Z,101181.06
2023-03-20T01:10:55.048Z,101177.88
2023-03-20T01:13:30.999Z,101182.28
2023-03-20T01:16:02.402Z,101180.41
2023-03-20T01:18:32.159Z,101181.94
2023-03-20T01:21:01.891Z,101174.69
2023-03-20T01:23:29.843Z,101167.78
2023-03-20T01:25:57.364Z,101178.19
2023-03-20T01:28:27.896Z,101168.22
2023-03-20T01:30:55.283Z,101174.34
2023-03-20T01:33:26.485Z,101173.34
2023-03-20T01:35:59.470Z,101177.47
2023-03-20T01:38:27.778Z,101168.19
2023-03-20T01:41:16.935Z,101161.72
2023-03-20T01:43:47.978Z,101160.88
2023-03-20T01:46:18.765Z,101160.47
2023-03-20T01:48:51.344Z,101163.25
2023-03-20T01:51:24.369Z,101163.25
2023-03-20T01:54:01.795Z,101157.63
2023-03-20T01:56:35.223Z,101158.28
2023-03-20T01:59:23.264Z,101154.22
2023-03-20T02:01:55.840Z,101149.53
2023-03-20T02:04:26.413Z,101144.22
2023-03-20T02:06:59.935Z,101141.84
2023-03-20T02:09:57.560Z,101143.75
2023-03-20T02:12:36.652Z,101150.41
2023-03-20T02:15:06.720Z,101148.03
2023-03-20T02:17:52.728Z,101156.47
2023-03-20T02:20:29.656Z,101150.50
2023-03-20T02:22:59.742Z,101155.72
2023-03-20T02:26:03.048Z,101150.50
2023-03-20T02:29:12.223Z,101150.94
2023-03-20T02:32:05.229Z,101148.06
2023-03-20T02:35:09.551Z,101146.50
2023-03-20T02:38:04.705Z,101151.16
2023-03-20T02:40:50.976Z,101150.19
2023-03-20T02:43:43.373Z,101147.34
2023-03-20T02:46:29.416Z,101135.16
2023-03-20T02:49:04.897Z,101144.41
2023-03-20T02:51:49.139Z,101133.22
2023-03-20T02:54:40.532Z,101136.03
2023-03-20T02:57:17.830Z,101136.44
2023-03-20T02:59:58.127Z,101132.38
2023-03-20T03:02:43.272Z,101132.25
2023-03-20T03:05:19.552Z,101125.31
2023-03-20T03:07:53.439Z,101124.63
2023-03-20T03:10:28.955Z,101132.25
2023-03-20T03:13:00.719Z,101128.69
2023-03-20T03:15:41.326Z,101122.16
2023-03-20T03:18:16.520Z,101116.97
2023-03-20T03:20:50.827Z,101121.44
2023-03-20T03:23:44.604Z,101122.16
2023-03-20T03:26:18.825Z,101118.06
2023-03-20T03:28:58.779Z,101123.56
2023-03-20T03:31:32.951Z,101118.50
2023-03-20T03:34:04.570Z,101125.00
2023-03-20T03:36:49.948Z,101126.56
2023-03-20T03:39:47.125Z,101125.31
2023-03-20T03:42:38.836Z,101129.31
2023-03-20T03:45:17.264Z,101126.94
2023-03-20T03:47:55.895Z,101123.31
2023-03-20T03:50:31.675Z,101132.22
2023-03-20T03:53:08.078Z,101130.94
2023-03-20T03:55:43.341Z,101132.97
2023-03-20T03:58:19.114Z,101126.16
2023-03-20T04:00:52.468Z,101125.78
2023-03-20T04:03:28.325Z,101122.94
2023-03-20T04:05:58.875Z,101117.56
2023-03-20T04:08:31.989Z,101121.13
2023-03-20T04:11:00.333Z,101119.72
2023-03-20T04:13:29.852Z,101113.66
2023-03-20T04:16:05.880Z,101108.28
2023-03-20T04:18:39.090Z,101113.66
2023-03-20T04:21:10.146Z,101118.56
2023-03-20T04:23:37.827Z,101123.84
2023-03-20T04:26:11.305Z,101118.25
2023-03-20T04:28:41.768Z,101116.69
2023-03-20T04:31:18.111Z,101113.72
2023-03-20T04:34:08.029Z,101114.84
2023-03-20T04:36:44.124Z,101110.59
2023-03-20T04:39:27.692Z,101112.22
2023-03-20T04:41:59.961Z,101114.06
2023-03-20T04:44:31.513Z,101110.34
2023-03-20T04:47:07.221Z,101101.03
2023-03-20T04:49:42.139Z,101113.88
2023-03-20T04:52:14.486Z,101114.94
2023-03-20T04:54:48.482Z,101127.47
2023-03-20T04:57:24.104Z,101128.69
2023-03-20T04:59:57.430Z,101125.84
2023-03-20T05:02:27.241Z,101126.66
2023-03-20T05:04:54.527Z,101127.00
2023-03-20T05:07:24.107Z,101124.97
2023-03-20T05:10:11.546Z,101132.56
2023-03-20T05:13:06.172Z,101128.81
2023-03-20T05:15:55.221Z,101130.53
2023-03-20T05:18:57.088Z,101128.81
2023-03-20T05:21:56.264Z,101126.91
2023-03-20T05:24:52.166Z,101122.50
2023-03-20T05:27:32.568Z,101127.31
2023-03-20T05:30:20.748Z,101135.28
2023-03-20T05:33:11.339Z,101135.34
2023-03-20T05:36:02.698Z,101136.16
2023-03-20T05:38:49.188Z,101136.59
2023-03-20T05:41:47.938Z,101135.69
2023-03-20T05:44:47.377Z,101139.31
2023-03-20T05:47:36.170Z,101144.69
2023-03-20T05:50:40.907Z,101144.97
2023-03-20T05:53:22.271Z,101151.41
2023-03-20T05:56:12.633Z,101141.84
2023-03-20T05:58:43.241Z,101148.78
2023-03-20T06:01:32.045Z,101153.97
2023-03-20T06:04:28.405Z,101161.69
2023-03-20T06:07:16.857Z,101169.31
2023-03-20T06:09:52.230Z,101175.81
2023-03-20T06:12:26.961Z,101177.44
2023-03-20T06:14:57.771Z,101177.34
2023-03-20T06:17:30.489Z,101186.34
2023-03-20T06:20:07.630Z,101191.31
2023-03-20T06:22:40.166Z,101196.56
2023-03-20T06:25:10.359Z,101209.63
2023-03-20T06:27:49.347Z,101205.59
2023-03-20T06:30:22.054Z,101203.69
2023-03-20T06:33:01.595Z,101202.47
2023-03-20T06:35:47.469Z,101202.53
2023-03-20T06:38:23.635Z,101198.13
2023-03-20T06:40:56.785Z,101207.78
2023-03-20T06:43:29.598Z,101203.72
2023-03-20T06:46:05.441Z,101206.47
2023-03-20T06:48:44.274Z,101213.41
2023-03-20T06:51:21.173Z,101209.00
2023-03-20T06:53:58.544Z,101215.91
2023-03-20T06:56:32.969Z,101214.75
2023-03-20T06:59:07.762Z,101213.94
2023-03-20T07:01:35.321Z,101219.97
2023-03-20T07:04:08.213Z,101213.13
2023-03-20T07:06:51.553Z,101216.72
2023-03-20T07:09:30.404Z,101220.41
2023-03-20T07:12:00.502Z,101223.56
2023-03-20T07:14:35.175Z,101221.81
2023-03-20T07:17:09.108Z,101221.81
2023-03-20T07:19:42.653Z,101220.75
2023-03-20T07:22:22.115Z,101218.38
2023-03-20T07:25:01.563Z,101211.16
2023-03-20T07:27:34.475Z,101221.44
2023-03-20T07:30:07.281Z,101221.16
2023-03-20T07:32:43.566Z,101221.09
2023-03-20T07:35:20.435Z,101222.72
2023-03-20T07:37:59.464Z,101220.31
2023-03-20T07:40:40.405Z,101221.16
2023-03-20T07:43:20.399Z,101223.91
2023-03-20T07:46:17.449Z,101218.31
2023-03-20T07:48:58.250Z,101223.97
2023-03-20T07:51:32.286Z,101228.94
2023-03-20T07:54:08.616Z,101229.00
2023-03-20T07:56:45.585Z,101230.84
2023-03-20T07:59:21.631Z,101224.13
2023-03-20T08:01:59.863Z,101228.31
2023-03-20T08:04:34.018Z,101224.47
2023-03-20T08:07:07.511Z,101223.97
2023-03-20T08:09:38.689Z,101224.75
2023-03-20T08:12:15.010Z,101221.41
2023-03-20T08:14:48.456Z,101220.66
2023-03-20T08:17:22.210Z,101223.56
2023-03-20T08:20:03.887Z,101234.78
2023-03-20T08:22:37.122Z,101236.56
2023-03-20T08:25:12.313Z,101236.25
2023-03-20T08:27:42.713Z,101229.41
2023-03-20T08:30:16.367Z,101238.25
2023-03-20T08:32:47.587Z,101233.84
2023-03-20T08:35:32.592Z,101229.00
2023-03-20T08:38:01.901Z,101233.03
2023-03-20T08:40:31.963Z,101227.25
2023-03-20T08:43:08.321Z,101234.53
2023-03-20T08:45:39.943Z,101229.59
2023-03-20T08:48:13.460Z,101235.50
2023-03-20T08:50:49.161Z,101236.63
2023-03-20T08:53:17.222Z,101236.75
2023-03-20T08:55:57.590Z,101234.00
2023-03-20T08:58:25.452Z,101230.22
2023-03-20T09:01:08.556Z,101233.97
2023-03-20T09:03:43.461Z,101234.34
2023-03-20T09:06:12.042Z,101236.78
2023-03-20T09:08:48.230Z,101230.00
2023-03-20T09:11:27.579Z,101231.56
2023-03-20T09:14:03.181Z,101235.56
2023-03-20T09:16:41.615Z,101231.75
2023-03-20T09:19:19.338Z,101226.91
2023-03-20T09:21:58.536Z,101232.63
2023-03-20T09:24:37.835Z,101227.00
2023-03-20T09:27:14.816Z,101227.50
2023-03-20T09:29:51.927Z,101225.94
2023-03-20T09:32:28.669Z,101237.97
2023-03-20T09:35:02.825Z,101233.63
2023-03-20T09:37:36.598Z,101229.13
2023-03-20T09:40:05.856Z,101225.13
2023-03-20T09:42:56.499Z,101231.63
2023-03-20T09:45:51.966Z,101228.84
2023-03-20T09:48:31.671Z,101222.78
2023-03-20T09:51:16.178Z,101227.81
2023-03-20T09:54:05.273Z,101225.38
2023-03-20T09:56:46.953Z,101222.31
2023-03-20T09:59:27.102Z,101226.97
2023-03-20T10:02:03.804Z,101222.81
2023-03-20T10:04:42.643Z,101228.19
2023-03-20T10:07:21.934Z,101227.00
2023-03-20T10:09:49.771Z,101229.47
2023-03-20T10:12:39.912Z,101229.44
2023-03-20T10:15:25.167Z,101217.75
2023-03-20T10:18:27.661Z,101227.75
2023-03-20T10:21:13.798Z,101225.84
2023-03-20T10:24:00.637Z,101218.91
2023-03-20T10:26:37.813Z,101226.34
2023-03-20T10:29:23.569Z,101220.69
2023-03-20T10:32:30.096Z,101214.25
2023-03-20T10:35:29.665Z,101214.72
2023-03-20T10:38:24.122Z,101208.25
2023-03-20T10:40:59.832Z,101204.66
2023-03-20T10:43:38.148Z,101202.28
2023-03-20T10:46:18.512Z,101203.84
2023-03-20T10:49:02.158Z,101192.19
2023-03-20T10:51:52.592Z,101188.53
2023-03-20T10:54:48.315Z,101180.50
2023-03-20T10:57:24.903Z,101187.00
2023-03-20T10:59:56.910Z,101179.72
2023-03-20T11:02:32.505Z,101182.09
2023-03-20T11:05:30.704Z,101169.88
2023-03-20T11:08:13.037Z,101173.91
2023-03-20T11:10:59.574Z,101178.31
2023-03-20T11:13:38.611Z,101173.97
2023-03-20T11:16:37.162Z,101179.63
2023-03-20T11:19:14.553Z,101173.50
2023-03-20T11:21:56.310Z,101167.88
2023-03-20T11:24:36.020Z,101161.41
2023-03-20T11:27:25.229Z,101171.13
2023-03-20T11:29:58.509Z,101158.59
2023-03-20T11:32:53.755Z,101158.19
2023-03-20T11:35:26.055Z,101157.03
2023-03-20T11:37:58.857Z,101156.22
2023-03-20T11:40:34.532Z,101154.56
2023-03-20T11:43:04.130Z,101163.88
2023-03-20T11:45:42.166Z,101151.75
2023-03-20T11:48:24.860Z,101150.94
2023-03-20T11:51:10.249Z,101140.00
2023-03-20T11:53:55.615Z,101137.13
2023-03-20T11:56:33.036Z,101137.47
2023-03-20T11:59:03.844Z,101131.44
2023-03-20T12:01:48.881Z,101131.06
2023-03-20T12:04:37.794Z,101125.28
2023-03-20T12:07:18.245Z,101128.47
2023-03-20T12:09:48.729Z,101116.75
2023-03-20T12:12:47.748Z,101121.56
2023-03-20T12:15:37.046Z,101124.31
2023-03-20T12:18:41.984Z,101112.22
2023-03-20T12:21:18.059Z,101116.66
2023-03-20T12:24:05.843Z,101111.78
2023-03-20T12:27:02.861Z,101111.50
2023-03-20T12:29:40.820Z,101109.50
2023-03-20T12:32:22.998Z,101113.13
2023-03-20T12:34:59.619Z,101110.25
2023-03-20T12:37:34.820Z,101107.84
2023-03-20T12:40:04.922Z,101105.81
2023-03-20T12:42:51.597Z,101100.56
2023-03-20T12:46:14.987Z,101103.78
2023-03-20T12:49:03.392Z,101092.50
2023-03-20T12:51:44.364Z,101088.81
2023-03-20T12:54:45.903Z,101091.28
2023-03-20T12:57:39.238Z,101099.34
2023-03-20T13:00:18.269Z,101088.13
2023-03-20T13:02:52.222Z,101099.88
2023-03-20T13:05:46.617Z,101094.66
2023-03-20T13:08:22.646Z,101089.81
2023-03-20T13:10:59.863Z,101091.00
2023-03-20T13:13:51.445Z,101089.78
2023-03-20T13:16:48.372Z,101088.13
2023-03-20T13:19:48.999Z,101083.69
2023-03-20T13:22:27.933Z,101082.47
2023-03-20T13:25:08.759Z,101080.88
2023-03-20T13:27:42.924Z,101080.06
2023-03-20T13:30:34.652Z,101077.22
2023-03-20T13:33:26.258Z,101075.97
2023-03-20T13:36:10.035Z,101078.34
2023-03-20T13:38:46.157Z,101072.34
2023-03-20T13:41:22.149Z,101078.00
2023-03-20T13:44:06.361Z,101065.44
2023-03-20T13:46:45.700Z,101068.69
2023-03-20T13:49:35.282Z,101072.34
2023-03-20T13:52:22.034Z,101061.41
2023-03-20T13:55:11.614Z,101066.66
2023-03-20T13:57:44.751Z,101063.03
2023-03-20T14:00:29.176Z,101065.47
2023-03-20T14:03:17.339Z,101065.50
2023-03-20T14:05:46.411Z,101068.34
2023-03-20T14:08:36.884Z,101065.09
2023-03-20T14:11:15.084Z,101071.56
2023-03-20T14:14:04.852Z,101067.50
2023-03-20T14:16:36.070Z,101063.47
2023-03-20T14:19:18.093Z,101060.63
2023-03-20T14:21:47.769Z,101061.03
2023-03-20T14:24:26.046Z,101067.09
2023-03-20T14:26:58.046Z,101067.50
2023-03-20T14:29:29.296Z,101059.81
2023-03-20T14:32:17.969Z,101056.97
2023-03-20T14:34:52.402Z,101055.75
2023-03-20T14:38:09.451Z,101054.16
2023-03-20T14:40:52.207Z,101049.69
2023-03-20T14:43:52.376Z,101050.91
2023-03-20T14:46:41.416Z,101051.31
2023-03-20T14:49:51.989Z,101052.50
2023-03-20T14:52:43.528Z,101049.25
2023-03-20T14:55:20.520Z,101042.78
2023-03-20T14:57:56.907Z,101041.59
2023-03-20T15:00:46.224Z,101043.63
2023-03-20T15:03:28.513Z,101044.00
2023-03-20T15:06:08.337Z,101049.28
2023-03-20T15:08:48.034Z,101040.38
2023-03-20T15:11:17.508Z,101049.28
2023-03-20T15:13:52.492Z,101048.47
2023-03-20T15:16:33.042Z,101056.56
2023-03-20T15:19:15.586Z,101048.06
2023-03-20T15:21:48.548Z,101053.72
2023-03-20T15:24:30.323Z,101049.28
2023-03-20T15:27:04.473Z,101054.53
2023-03-20T15:29:33.331Z,101048.44
2023-03-20T15:32:14.348Z,101049.25
2023-03-20T15:34:50.792Z,101057.78
2023-03-20T15:37:24.080Z,101045.59
2023-03-20T15:39:59.833Z,101054.53
2023-03-20T15:42:32.156Z,101060.59
2023-03-20T15:45:19.969Z,101055.75
2023-03-20T15:47:51.858Z,101049.69
2023-03-20T15:50:27.194Z,101050.91
2023-03-20T15:53:03.231Z,101050.09
2023-03-20T15:55:41.126Z,101046.47
2023-03-20T15:58:20.457Z,101049.28
2023-03-20T16:01:00.106Z,101055.78
2023-03-20T16:03:31.097Z,101046.88
2023-03-20T16:06:09.343Z,101060.63
2023-03-20T16:08:39.922Z,101058.22
2023-03-20T16:11:22.043Z,101052.13
2023-03-20T16:13:55.920Z,101053.31
2023-03-20T16:16:37.855Z,101052.94
2023-03-20T16:19:13.190Z,101053.75
2023-03-20T16:22:14.824Z,101047.25
2023-03-20T16:24:53.263Z,101051.34
2023-03-20T16:27:47.197Z,101054.97
2023-03-20T16:30:17.376Z,101072.38
2023-03-20T16:33:17.665Z,101064.25
2023-03-20T16:35:49.915Z,101068.72
2023-03-20T16:38:29.419Z,101068.72
2023-03-20T16:41:29.357Z,101067.91
2023-03-20T16:44:00.389Z,101076.41
2023-03-20T16:46:31.387Z,101077.59
2023-03-20T16:49:34.836Z,101074.75
2023-03-20T16:52:11.805Z,101075.16
2023-03-20T16:54:41.948Z,101076.31
2023-03-20T16:57:17.374Z,101076.69
2023-03-20T16:59:48.209Z,101083.56
2023-03-20T17:02:27.696Z,101080.31
2023-03-20T17:05:02.313Z,101087.22
2023-03-20T17:07:31.659Z,101085.56
2023-03-20T17:10:17.750Z,101085.56
2023-03-20T17:12:55.027Z,101085.56
2023-03-20T17:15:31.308Z,101087.97
2023-03-20T17:18:04.577Z,101080.66
2023-03-20T17:20:40.311Z,101091.19
2023-03-20T17:23:19.838Z,101092.78
2023-03-20T17:25:52.883Z,101094.41
2023-03-20T17:28:34.265Z,101097.66
2023-03-20T17:31:10.433Z,101098.84
2023-03-20T17:33:46.509Z,101109.75
2023-03-20T17:36:20.631Z,101106.91
2023-03-20T17:38:53.691Z,101106.91
2023-03-20T17:41:25.864Z,101111.75
2023-03-20T17:43:54.085Z,101112.13
2023-03-20T17:46:28.016Z,101112.56
2023-03-20T17:49:06.049Z,101115.75
2023-03-20T17:51:41.476Z,101108.09
2023-03-20T17:54:17.909Z,101104.84
2023-03-20T17:56:51.410Z,101108.47
2023-03-20T17:59:21.424Z,101112.13
2023-03-20T18:01:53.296Z,101113.72
2023-03-20T18:04:29.715Z,101108.47
2023-03-20T18:07:04.614Z,101115.72
2023-03-20T18:09:35.083Z,101116.19
2023-03-20T18:12:22.392Z,101126.69
2023-03-20T18:14:53.529Z,101121.03
2023-03-20T18:17:22.518Z,101124.66
2023-03-20T18:19:54.298Z,101126.69
2023-03-20T18:22:26.612Z,101132.72
2023-03-20T18:24:54.173Z,101122.63
2023-03-20T18:27:21.810Z,101126.66
2023-03-20T18:29:54.696Z,101126.66
2023-03-20T18:32:22.258Z,101129.38
2023-03-20T18:34:52.631Z,101129.38
2023-03-20T18:37:22.124Z,101129.81
2023-03-20T18:39:53.020Z,101138.72
2023-03-20T18:42:23.617Z,101135.47
2023-03-20T18:44:53.937Z,101135.47
2023-03-20T18:47:22.564Z,101137.88
2023-03-20T18:49:58.039Z,101139.44
2023-03-20T18:52:26.265Z,101137.78
2023-03-20T18:54:59.090Z,101143.03
2023-03-20T18:57:29.674Z,101146.31
2023-03-20T19:00:06.097Z,101150.72
2023-03-20T19:02:33.793Z,101146.31
2023-03-20T19:05:07.289Z,101147.50
2023-03-20T19:07:34.771Z,101160.03
2023-03-20T19:10:05.265Z,101156.34
2023-03-20T19:12:41.566Z,101163.22
2023-03-20T19:15:10.707Z,101162.81
2023-03-20T19:17:41.272Z,101171.72
2023-03-20T19:20:26.610Z,101177.34
2023-03-20T19:22:55.666Z,101165.59
2023-03-20T19:25:29.141Z,101178.50
2023-03-20T19:27:56.811Z,101172.44
2023-03-20T19:30:34.740Z,101175.25
2023-03-20T19:33:03.556Z,101181.34
2023-03-20T19:35:58.798Z,101179.31
2023-03-20T19:38:26.193Z,101186.53
2023-03-20T19:40:57.870Z,101197.47
2023-03-20T19:43:32.416Z,101193.41
2023-03-20T19:46:00.194Z,101192.63
2023-03-20T19:48:50.401Z,101191.38
2023-03-20T19:51:20.632Z,101197.91
2023-03-20T19:53:50.168Z,101195.06
2023-03-20T19:56:22.256Z,101192.25
2023-03-20T19:58:54.835Z,101197.03
2023-03-20T20:01:27.050Z,101199.84
2023-03-20T20:03:55.279Z,101204.34
2023-03-20T20:06:32.079Z,101209.16
2023-03-20T20:09:01.336Z,101204.34
2023-03-20T20:11:32.210Z,101204.34
2023-03-20T20:14:09.446Z,101207.09
2023-03-20T20:16:43.126Z,101203.47
2023-03-20T20:19:15.014Z,101209.56
2023-03-20T20:24:45.377Z,101218.84
2023-03-20T20:27:19.094Z,101210.34
2023-03-20T20:29:51.598Z,101216.84
2023-03-20T20:32:21.903Z,101206.66
2023-03-20T20:38:30.646Z,101206.25
2023-03-20T20:40:32.443Z,101206.66
2023-03-20T20:43:02.427Z,101211.91
2023-03-20T20:45:35.028Z,101201.38
2023-03-20T20:48:07.524Z,101199.38
2023-03-20T20:50:39.207Z,101203.41
2023-03-20T20:53:09.870Z,101199.75
2023-03-20T20:55:38.070Z,101196.91
2023-03-20T20:58:07.091Z,101200.56
2023-03-20T21:00:51.663Z,101198.50
2023-03-20T21:03:24.464Z,101198.50
2023-03-20T21:05:54.091Z,101204.50
2023-03-20T21:08:22.517Z,101201.63
2023-03-20T21:10:53.269Z,101200.47
2023-03-20T21:13:27.322Z,101204.09
2023-03-20T21:16:00.082Z,101202.91
2023-03-20T21:18:31.421Z,101205.38
2023-03-20T21:21:13.184Z,101202.50
2023-03-20T21:23:41.823Z,101200.44
2023-03-20T21:26:13.663Z,101203.72
2023-03-20T21:28:44.082Z,101199.25
2023-03-20T21:31:26.555Z,101208.50
2023-03-20T21:33:55.690Z,101199.59
2023-03-20T21:36:25.133Z,101203.66
2023-03-20T21:39:08.122Z,101209.72
2023-03-20T21:41:37.893Z,101218.19
2023-03-20T21:44:06.362Z,101212.53
2023-03-20T21:50:23.275Z,101212.41
2023-03-20T21:56:09.109Z,101214.06
2023-03-20T22:04:45.049Z,101222.22
2023-03-20T22:07:24.197Z,101217.41
2023-03-20T22:16:03.516Z,101219.81
2023-03-20T22:18:50.837Z,101224.25
2023-03-20T22:24:36.688Z,101209.72
2023-03-20T22:27:27.014Z,101212.03
2023-03-20T22:30:31.028Z,101221.84
2023-03-20T22:32:56.522Z,101216.03
2023-03-20T22:38:59.019Z,101216.03
2023-03-20T22:44:41.638Z,101202.72
2023-03-20T22:46:47.124Z,101202.75
2023-03-20T22:49:15.406Z,101203.56
2023-03-20T22:52:07.753Z,101207.97
2023-03-20T22:54:41.117Z,101203.53
2023-03-20T22:57:09.662Z,101198.22
2023-03-20T22:59:40.108Z,101199.00
2023-03-20T23:02:09.126Z,101191.38
2023-03-20T23:04:42.247Z,101186.91
2023-03-20T23:07:12.697Z,101192.13
2023-03-20T23:09:40.154Z,101197.03
2023-03-20T23:12:11.673Z,101195.00
2023-03-20T23:14:45.818Z,101184.53
2023-03-20T23:17:21.287Z,101186.16
2023-03-20T23:19:56.303Z,101181.31
2023-03-20T23:22:35.599Z,101177.22
2023-03-20T23:25:20.716Z,101176.03
2023-03-20T23:27:53.624Z,101175.97
2023-03-20T23:30:30.909Z,101177.56
2023-03-20T23:33:10.877Z,101173.50
2023-03-20T23:35:41.138Z,101167.44
2023-03-20T23:38:08.475Z,101173.50
2023-03-20T23:40:42.128Z,101177.91
2023-03-20T23:43:11.818Z,101175.19
2023-03-20T23:45:42.085Z,101168.63
2023-03-20T23:48:15.830Z,101163.03
2023-03-20T23:50:53.302Z,101157.34
2023-03-20T23:53:24.699Z,101161.41
2023-03-20T23:55:55.649Z,101159.75
2023-03-20T23:58:25.893Z,101154.41
